createdAt,value
2022-12-25T00:04:46.049Z,97515.59
2022-12-25T00:09:49.935Z,97520.31
2022-12-25T00:14:53.524Z,97509.28
2022-12-25T00:19:58.568Z,97503.09
2022-12-25T00:25:02.075Z,97491.81
2022-12-25T00:30:07.025Z,97496.94
2022-12-25T00:35:12.105Z,97484.94
2022-12-25T00:40:15.780Z,97468.47
2022-12-25T00:45:19.451Z,97479.38
2022-12-25T00:50:24.345Z,97476.06
2022-12-25T00:55:27.854Z,97469.94
2022-12-25T01:00:31.503Z,97482.63
2022-12-25T01:05:36.496Z,97489.28
2022-12-25T01:10:40.235Z,97501.66
2022-12-25T01:15:43.717Z,97523.41
2022-12-25T01:20:49.280Z,97530.13
2022-12-25T01:25:52.857Z,97517.00
2022-12-25T01:30:56.380Z,97528.63
2022-12-25T01:36:01.254Z,97528.41
2022-12-25T01:41:05.089Z,97514.31
2022-12-25T01:46:08.897Z,97523.53
2022-12-25T01:51:23.120Z,97533.97
2022-12-25T01:56:28.321Z,97529.28
2022-12-25T02:01:32.220Z,97521.69
2022-12-25T02:06:37.472Z,97515.50
2022-12-25T02:12:07.236Z,97519.63
2022-12-25T02:17:20.192Z,97514.97
2022-12-25T02:22:33.643Z,97519.69
2022-12-25T02:28:09.068Z,97519.03
2022-12-25T02:33:34.885Z,97518.09
2022-12-25T02:39:02.360Z,97521.50
2022-12-25T02:44:32.255Z,97524.81
2022-12-25T02:49:54.661Z,97519.16
2022-12-25T02:55:20.412Z,97492.53
2022-12-25T03:00:43.236Z,97493.16
2022-12-25T03:06:04.313Z,97495.91
2022-12-25T03:11:28.474Z,97478.78
2022-12-25T03:16:51.479Z,97491.38
2022-12-25T03:22:14.911Z,97495.72
2022-12-25T03:27:18.555Z,97494.75
2022-12-25T03:32:35.190Z,97493.84
2022-12-25T03:38:13.792Z,97498.22
2022-12-25T03:43:45.421Z,97499.84
2022-12-25T03:49:14.811Z,97509.22
2022-12-25T03:54:41.960Z,97511.53
2022-12-25T04:00:02.980Z,97518.31
2022-12-25T04:05:31.415Z,97509.44
2022-12-25T04:11:00.688Z,97511.91
2022-12-25T04:16:21.882Z,97509.09
2022-12-25T04:21:44.489Z,97507.59
2022-12-25T04:27:05.791Z,97515.94
2022-12-25T04:32:26.795Z,97500.56
2022-12-25T04:37:31.950Z,97511.72
2022-12-25T04:42:35.550Z,97504.69
2022-12-25T04:47:39.344Z,97497.56
2022-12-25T04:52:44.469Z,97485.75
2022-12-25T04:57:47.927Z,97488.16
2022-12-25T05:02:51.604Z,97482.28
2022-12-25T05:07:57.686Z,97474.91
2022-12-25T05:13:01.390Z,97474.78
2022-12-25T05:18:05.324Z,97461.19
2022-12-25T05:23:10.542Z,97455.16
2022-12-25T05:28:14.196Z,97448.78
2022-12-25T05:33:17.714Z,97459.75
2022-12-25T05:38:22.626Z,97454.16
2022-12-25T05:43:26.190Z,97465.41
2022-12-25T05:48:29.852Z,97458.41
2022-12-25T05:53:35.268Z,97463.72
2022-12-25T05:58:40.195Z,97453.81
2022-12-25T06:03:43.910Z,97467.22
2022-12-25T06:08:49.026Z,97466.84
2022-12-25T06:13:53.997Z,97463.44
2022-12-25T06:18:57.628Z,97460.22
2022-12-25T06:24:03.101Z,97462.91
2022-12-25T06:29:07.220Z,97466.81
2022-12-25T06:34:11.040Z,97477.72
2022-12-25T06:39:16.121Z,97487.34
2022-12-25T06:44:19.555Z,97480.28
2022-12-25T06:49:23.538Z,97492.72
2022-12-25T06:54:28.727Z,97482.66
2022-12-25T06:59:32.322Z,97490.16
2022-12-25T07:04:39.909Z,97475.00
2022-12-25T07:09:45.215Z,97466.31
2022-12-25T07:14:50.321Z,97468.84
2022-12-25T07:19:54.316Z,97447.56
2022-12-25T07:24:59.437Z,97452.72
2022-12-25T07:30:03.427Z,97464.09
2022-12-25T07:35:07.837Z,97474.56
2022-12-25T07:40:13.900Z,97473.69
2022-12-25T07:45:17.653Z,97458.06
2022-12-25T07:50:22.102Z,97453.75
2022-12-25T07:55:28.166Z,97440.81
2022-12-25T08:00:32.880Z,97443.44
2022-12-25T08:05:36.750Z,97449.34
2022-12-25T08:10:46.425Z,97449.00
2022-12-25T08:15:50.224Z,97435.34
2022-12-25T08:20:53.765Z,97453.28
2022-12-25T08:26:05.481Z,97450.41
2022-12-25T08:31:11.673Z,97459.81
2022-12-25T08:36:17.563Z,97453.41
2022-12-25T08:41:23.076Z,97443.91
2022-12-25T08:46:26.794Z,97435.38
2022-12-25T08:51:30.445Z,97411.78
2022-12-25T08:56:36.661Z,97416.09
2022-12-25T09:01:40.441Z,97414.38
2022-12-25T09:06:43.984Z,97429.22
2022-12-25T09:11:50.268Z,97427.47
2022-12-25T09:16:53.847Z,97431.00
2022-12-25T09:21:57.418Z,97427.41
2022-12-25T09:27:02.568Z,97421.72
2022-12-25T09:32:06.975Z,97423.91
2022-12-25T09:37:11.622Z,97433.63
2022-12-25T09:42:21.935Z,97429.69
2022-12-25T09:47:29.193Z,97413.81
2022-12-25T09:52:41.223Z,97399.41
2022-12-25T09:57:47.455Z,97397.34
2022-12-25T10:03:24.796Z,97364.16
2022-12-25T10:08:48.297Z,97361.28
2022-12-25T10:14:07.525Z,97348.31
2022-12-25T10:19:20.201Z,97358.44
2022-12-25T10:24:34.181Z,97348.50
2022-12-25T10:29:39.923Z,97352.34
2022-12-25T10:34:43.789Z,97357.22
2022-12-25T10:39:47.388Z,97337.28
2022-12-25T10:45:00.796Z,97338.75
2022-12-25T10:50:11.067Z,97296.13
2022-12-25T10:55:24.957Z,97284.03
2022-12-25T11:00:34.525Z,97280.41
2022-12-25T11:05:38.202Z,97279.66
2022-12-25T11:10:43.970Z,97306.00
2022-12-25T11:15:50.323Z,97303.94
2022-12-25T11:20:58.003Z,97288.75
2022-12-25T11:26:04.103Z,97267.97
2022-12-25T11:31:13.677Z,97257.97
2022-12-25T11:36:22.808Z,97255.09
2022-12-25T11:41:33.789Z,97236.38
2022-12-25T11:46:42.945Z,97234.75
2022-12-25T11:51:50.539Z,97242.50
2022-12-25T11:56:54.626Z,97255.41
2022-12-25T12:02:03.169Z,97247.28
2022-12-25T12:07:18.266Z,97242.94
2022-12-25T12:12:30.808Z,97207.06
2022-12-25T12:17:36.218Z,97197.97
2022-12-25T12:22:40.096Z,97212.84
2022-12-25T12:27:43.875Z,97219.13
2022-12-25T12:32:54.318Z,97223.84
2022-12-25T12:38:04.318Z,97227.66
2022-12-25T12:43:25.389Z,97222.72
2022-12-25T12:48:31.574Z,97203.50
2022-12-25T12:53:35.181Z,97213.81
2022-12-25T12:58:45.277Z,97199.44
2022-12-25T13:04:06.730Z,97189.03
2022-12-25T13:09:29.243Z,97178.81
2022-12-25T13:14:32.987Z,97173.72
2022-12-25T13:19:39.408Z,97189.66
2022-12-25T13:24:43.096Z,97163.88
2022-12-25T13:29:46.842Z,97150.03
2022-12-25T13:34:52.647Z,97158.28
2022-12-25T13:39:58.205Z,97159.53
2022-12-25T13:45:06.728Z,97160.69
2022-12-25T13:50:21.082Z,97161.69
2022-12-25T13:55:26.795Z,97137.03
2022-12-25T14:00:36.886Z,97134.34
2022-12-25T14:05:43.752Z,97134.34
2022-12-25T14:10:50.624Z,97136.16
2022-12-25T14:15:55.691Z,97136.59
2022-12-25T14:21:06.061Z,97144.09
2022-12-25T14:26:18.076Z,97145.06
2022-12-25T14:31:23.612Z,97139.25
2022-12-25T14:36:29.982Z,97133.50
2022-12-25T14:41:38.483Z,97127.56
2022-12-25T14:46:42.194Z,97136.09
2022-12-25T14:51:47.450Z,97129.19
2022-12-25T14:56:53.927Z,97116.34
2022-12-25T15:02:01.291Z,97120.41
2022-12-25T15:07:08.511Z,97118.09
2022-12-25T15:12:12.066Z,97111.00
2022-12-25T15:17:25.491Z,97092.75
2022-12-25T15:22:47.763Z,97094.88
2022-12-25T15:27:54.398Z,97092.91
2022-12-25T15:32:57.964Z,97092.16
2022-12-25T15:38:02.993Z,97087.69
2022-12-25T15:43:14.531Z,97083.47
2022-12-25T15:48:26.071Z,97069.75
2022-12-25T15:53:31.312Z,97067.41
2022-12-25T15:58:34.991Z,97077.47
2022-12-25T16:03:38.697Z,97054.94
2022-12-25T16:08:44.804Z,97064.00
2022-12-25T16:13:48.726Z,97058.59
2022-12-25T16:18:52.365Z,97038.94
2022-12-25T16:23:57.301Z,97033.34
2022-12-25T16:29:06.561Z,97029.66
2022-12-25T16:34:11.132Z,97024.88
2022-12-25T16:39:16.082Z,97038.94
2022-12-25T16:44:19.746Z,97038.06
2022-12-25T16:49:23.508Z,97036.69
2022-12-25T16:54:28.803Z,97028.69
2022-12-25T16:59:33.075Z,97042.38
2022-12-25T17:04:36.814Z,97041.84
2022-12-25T17:09:44.524Z,97045.22
2022-12-25T17:14:48.654Z,97040.63
2022-12-25T17:19:52.351Z,97044.28
2022-12-25T17:24:57.682Z,97041.22
2022-12-25T17:30:01.284Z,97038.47
2022-12-25T17:35:05.244Z,97040.25
2022-12-25T17:40:11.654Z,97040.84
2022-12-25T17:45:15.843Z,97040.59
2022-12-25T17:50:19.511Z,97036.56
2022-12-25T17:55:24.598Z,97043.09
2022-12-25T18:00:28.588Z,97052.66
2022-12-25T18:05:32.226Z,97032.25
2022-12-25T18:10:38.779Z,97052.44
2022-12-25T18:15:42.743Z,97036.13
2022-12-25T18:20:46.560Z,97046.38
2022-12-25T18:25:53.239Z,97057.47
2022-12-25T18:30:56.939Z,97057.78
2022-12-25T18:36:02.094Z,97048.09
2022-12-25T18:41:09.770Z,97044.53
2022-12-25T18:46:15.461Z,97053.88
2022-12-25T18:51:19.337Z,97049.56
2022-12-25T18:56:24.419Z,97039.25
2022-12-25T19:01:29.006Z,97027.84
2022-12-25T19:06:33.463Z,97005.78
2022-12-25T19:11:45.924Z,97011.50
2022-12-25T19:16:50.381Z,96984.91
2022-12-25T19:21:55.065Z,97000.47
2022-12-25T19:27:00.090Z,97001.75
2022-12-25T19:32:03.703Z,96986.69
2022-12-25T19:37:07.382Z,96997.03
2022-12-25T19:42:12.453Z,96993.97
2022-12-25T19:47:16.150Z,96991.31
2022-12-25T19:52:19.986Z,96980.03
2022-12-25T19:57:25.347Z,96981.84
2022-12-25T20:02:29.072Z,96970.41
2022-12-25T20:07:32.878Z,96985.19
2022-12-25T20:12:38.281Z,96985.56
2022-12-25T20:17:41.899Z,96976.00
2022-12-25T20:22:49.222Z,96973.47
2022-12-25T20:27:54.816Z,96983.25
2022-12-25T20:32:59.289Z,96980.69
2022-12-25T20:38:03.024Z,96981.53
2022-12-25T20:43:08.058Z,96982.16
2022-12-25T20:48:11.778Z,96966.13
2022-12-25T20:53:15.658Z,96985.22
2022-12-25T20:58:20.695Z,96976.97
2022-12-25T21:03:24.535Z,96963.69
2022-12-25T21:08:29.008Z,96959.84
2022-12-25T21:13:36.285Z,96948.53
2022-12-25T21:18:40.074Z,96947.63
2022-12-25T21:23:43.774Z,96936.78
2022-12-25T21:28:49.837Z,96917.13
2022-12-25T21:33:55.158Z,96933.81
2022-12-25T21:39:00.752Z,96923.50
2022-12-25T21:44:06.282Z,96947.41
2022-12-25T21:49:10.586Z,96971.09
2022-12-25T21:54:15.652Z,96966.72
2022-12-25T21:59:22.154Z,96958.66
2022-12-25T22:04:26.292Z,96940.38
2022-12-25T22:09:30.294Z,96963.88
2022-12-25T22:14:56.215Z,96972.72
2022-12-25T22:20:00.888Z,96971.88
2022-12-25T22:25:06.956Z,96978.31
2022-12-25T22:30:14.470Z,96966.22
2022-12-25T22:35:18.807Z,96968.25
2022-12-25T22:40:22.738Z,96960.56
2022-12-25T22:45:27.707Z,96960.91
2022-12-25T22:50:31.531Z,96967.28
2022-12-25T22:55:35.244Z,96965.72
2022-12-25T23:00:46.379Z,96965.31
2022-12-25T23:05:55.505Z,96963.78
2022-12-25T23:11:03.371Z,96945.69
2022-12-25T23:16:14.213Z,96949.28
2022-12-25T23:21:36.927Z,96972.13
2022-12-25T23:31:55.982Z,96962.75
2022-12-25T23:36:59.596Z,96969.41
2022-12-25T23:42:04.040Z,96971.91
2022-12-25T23:47:09.839Z,96979.31
2022-12-25T23:52:14.848Z,96964.81
2022-12-25T23:57:18.847Z,96994.09
